Ride Results

Lockhart Challenge (26-05-2017)
Ride distance: 80.0 km

Outcomes - Lockhart Challenge (26-05-2017)
Division No. of Entries Retired / DNE Completed Withdrawn Ineligible V/O Percentage Completed
HW 3 - 1 1 - 1 33.33%
MW 13 - 12 - - 1 92.31%
LW 9 - 7 - - 2 77.78%
JN 5 - 4 - - 1 80.00%
Totals 30 - 24 1 - 5 80.00%
Results - Lockhart Challenge (26-05-2017)
No. Rider Horse Place Time Leg Speeds Total
Km/Hr
H/R bpm
Heavyweight
137 John Shoobridge Bulls Eye 1 (BC) 6:03:00 13.3, 13.1 13.22 36, 49, 54 (Avg:51)
303 Deon Bligh Imaj Izmal Fleurteesha Heart Rate L2 0:00:00 10.8, 10.2 - 36, 46, 62 (Avg:54)
194 Robby Walsh Free Spirit Czar Widthdrawn L1 0:00:00 - - 37, 54 (Avg:54)
Middleweight
125 Brooke Brown-Cordell Tierview Salama 1 (BC) 4:40:00 15.6, 18.8 17.14 39, 48, 47 (Avg:47)
114 Tara Nicklason Wongawol Legend 2 4:53:00 15.7, 17.0 16.38 37, 54, 50 (Avg:52)
80 Noel Lockhart Lockleigh Park Spirit of Tas 3 5:07:00 15.5, 15.6 15.64 31, 41, 44 (Avg:42)
136 Kaye Mitchell Beer Street Lizzy B 4 5:48:00 14.5, 13.1 13.79 36, 48, 50 (Avg:49)
165 Danielle Taylor Touchwarr Zamba 5 6:04:00 14.0, 12.4 13.19 35, 50, 45 (Avg:47)
78 Brad Hill KA Shazi 6 6:05:00 13.3, 12.9 13.15 41, 41, 58 (Avg:49)
77 Victoria Moreton-Straw Santashka Jewel of Alii 6 6:05:00 13.3, 12.9 13.15 36, 48, 51 (Avg:49)
12 Anita Hutchins AT Dial Range Sam 8 6:47:00 11.2, 12.3 11.79 29, 42, 46 (Avg:44)
258 Tiffany Morley Cameo Izaiah 9 6:52:00 11.2, 12.1 11.65 43, 45, 45 (Avg:45)
92 Blaine Astell Tonki Dee Boo Summa 10 6:56:00 10.8, 12.3 11.54 36, 44, 55 (Avg:49)
276 Naomi Maxwell Highland View Pearl 11 7:32:29 10.7, 10.4 10.61 40, 42, 51 (Avg:46)
191 Shane Neilley Highland View Miss Sea 12 7:32:30 10.7, 10.4 10.61 44, 47, 54 (Avg:50)
179 Debbie Grull Lauralyn Notorious Lame L2 0:00:00 15.7, 15.4 - 33, 44, 44 (Avg:44)
Lightweight
291 Grace Huxtable Highland View Penny 1 6:04:00 14.0, 12.4 13.19 50, 43, 54 (Avg:48)
228 Melissa Kelly Melody 2 6:05:00 13.3, 12.9 13.15 28, 45, 50 (Avg:47)
74 Felicity Perry Vandieman Phenix 3 6:33:00 12.8, 11.6 12.21 49, 50, 54 (Avg:52)
83 Angie Clark Castlebar Galahad 4 6:52:00 11.2, 12.1 11.65 35, 47, 51 (Avg:49)
90 Angela Hawks Cameo Chrizto 5 (BC) 6:56:00 10.8, 12.3 11.54 38, 41, 45 (Avg:43)
304 Bethany McGregor Woodsong Zadonk 6 7:13:00 10.8, 11.3 11.09 43, 47, 56 (Avg:51)
100 Trish Smith Beaucheval Akhiran 7 7:29:00 10.8, 10.5 10.69 35, 47, 53 (Avg:50)
154 Sarah Parker Yondover Ridge Diva Lame L2 0:00:00 12.8, 11.2 - 45, 47, 58 (Avg:52)
70 Chels Royer AT Dial Range Bill Lame L1 0:00:00 11.2 - 32, 46 (Avg:46)
Junior
297 Brittany Farrell Sanndenoa Shining Constellation 1 4:40:00 15.6, 18.8 17.14 45, 50, 52 (Avg:51)
66 Bella Pickering Vandieman Trojen 1 (BC) 4:40:00 16.1, 18.3 17.14 34, 45, 52 (Avg:48)
113 Kirstie Lockhart Razara Momentum 3 5:07:00 15.5, 15.6 15.64 39, 45, 47 (Avg:46)
307 Laura McGregor Anderton Park El Ashar 4 7:13:00 10.8, 11.3 11.09 32, 39, 47 (Avg:43)
295 Taylor Fuller Manhatten ff Lame L2 0:00:00 11.2, 12.3 - 38, 42, 52 (Avg:47)